sensor_id;sensor_type;location;lat;lon;timestamp;P1;durP1;ratioP1;P2;durP2;ratioP2
10641;SDS011;5369;49.586;8.646;2024-02-14T00:01:11;14.27;;;6.90;;
10641;SDS011;5369;49.586;8.646;2024-02-14T00:03:37;11.37;;;6.30;;
10641;SDS011;5369;49.586;8.646;2024-02-14T00:06:04;8.63;;;5.80;;
10641;SDS011;5369;49.586;8.646;2024-02-14T00:08:31;7.97;;;4.80;;
10641;SDS011;5369;49.586;8.646;2024-02-14T00:10:57;10.10;;;5.67;;
10641;SDS011;5369;49.586;8.646;2024-02-14T00:13:23;10.20;;;5.50;;
10641;SDS011;5369;49.586;8.646;2024-02-14T00:15:49;8.63;;;4.70;;
10641;SDS011;5369;49.586;8.646;2024-02-14T00:18:16;8.93;;;5.13;;
10641;SDS011;5369;49.586;8.646;2024-02-14T00:20:42;40.13;;;14.83;;
10641;SDS011;5369;49.586;8.646;2024-02-14T00:23:09;17.50;;;7.43;;
10641;SDS011;5369;49.586;8.646;2024-02-14T00:25:36;16.23;;;7.70;;
10641;SDS011;5369;49.586;8.646;2024-02-14T00:28:03;10.53;;;5.77;;
10641;SDS011;5369;49.586;8.646;2024-02-14T00:30:30;8.97;;;5.00;;
10641;SDS011;5369;49.586;8.646;2024-02-14T00:33:14;10.53;;;5.73;;
10641;SDS011;5369;49.586;8.646;2024-02-14T00:35:41;20.90;;;9.73;;
10641;SDS011;5369;49.586;8.646;2024-02-14T00:38:07;13.30;;;6.97;;
10641;SDS011;5369;49.586;8.646;2024-02-14T00:40:33;21.77;;;10.80;;
10641;SDS011;5369;49.586;8.646;2024-02-14T00:42:59;18.30;;;8.43;;
10641;SDS011;5369;49.586;8.646;2024-02-14T00:45:25;13.77;;;7.50;;
10641;SDS011;5369;49.586;8.646;2024-02-14T00:47:52;10.90;;;5.77;;
10641;SDS011;5369;49.586;8.646;2024-02-14T00:50:18;12.37;;;6.93;;
10641;SDS011;5369;49.586;8.646;2024-02-14T00:52:44;10.33;;;5.73;;
10641;SDS011;5369;49.586;8.646;2024-02-14T00:55:10;18.10;;;9.23;;
10641;SDS011;5369;49.586;8.646;2024-02-14T00:57:37;23.67;;;11.70;;
10641;SDS011;5369;49.586;8.646;2024-02-14T01:00:04;15.87;;;8.53;;
10641;SDS011;5369;49.586;8.646;2024-02-14T01:02:32;18.80;;;9.33;;
10641;SDS011;5369;49.586;8.646;2024-02-14T01:04:58;17.03;;;8.97;;
10641;SDS011;5369;49.586;8.646;2024-02-14T01:07:25;13.10;;;6.57;;
10641;SDS011;5369;49.586;8.646;2024-02-14T01:09:51;16.40;;;7.53;;
10641;SDS011;5369;49.586;8.646;2024-02-14T01:12:17;16.67;;;7.70;;
10641;SDS011;5369;49.586;8.646;2024-02-14T01:14:43;12.83;;;6.50;;
10641;SDS011;5369;49.586;8.646;2024-02-14T01:17:09;19.50;;;8.50;;
10641;SDS011;5369;49.586;8.646;2024-02-14T01:19:36;17.27;;;7.60;;
10641;SDS011;5369;49.586;8.646;2024-02-14T01:22:02;20.63;;;9.53;;
10641;SDS011;5369;49.586;8.646;2024-02-14T01:24:28;17.43;;;8.37;;
10641;SDS011;5369;49.586;8.646;2024-02-14T01:26:55;23.10;;;10.67;;
10641;SDS011;5369;49.586;8.646;2024-02-14T01:29:21;23.37;;;10.70;;
10641;SDS011;5369;49.586;8.646;2024-02-14T01:31:48;19.40;;;8.30;;
10641;SDS011;5369;49.586;8.646;2024-02-14T01:34:15;14.57;;;6.30;;
10641;SDS011;5369;49.586;8.646;2024-02-14T01:36:41;9.20;;;4.87;;
10641;SDS011;5369;49.586;8.646;2024-02-14T01:39:08;6.73;;;3.77;;
10641;SDS011;5369;49.586;8.646;2024-02-14T01:41:44;6.77;;;4.20;;
10641;SDS011;5369;49.586;8.646;2024-02-14T01:44:11;6.17;;;3.60;;
10641;SDS011;5369;49.586;8.646;2024-02-14T01:46:37;8.20;;;4.30;;
10641;SDS011;5369;49.586;8.646;2024-02-14T01:49:03;6.23;;;4.10;;
10641;SDS011;5369;49.586;8.646;2024-02-14T01:51:30;9.43;;;4.47;;
10641;SDS011;5369;49.586;8.646;2024-02-14T01:53:57;6.50;;;4.53;;
10641;SDS011;5369;49.586;8.646;2024-02-14T01:56:24;8.83;;;4.43;;
10641;SDS011;5369;49.586;8.646;2024-02-14T01:58:50;6.50;;;4.17;;
10641;SDS011;5369;49.586;8.646;2024-02-14T02:01:16;9.60;;;4.13;;
10641;SDS011;5369;49.586;8.646;2024-02-14T02:03:44;6.63;;;4.13;;
10641;SDS011;5369;49.586;8.646;2024-02-14T02:06:10;9.00;;;4.10;;
10641;SDS011;5369;49.586;8.646;2024-02-14T02:08:36;8.37;;;4.40;;
10641;SDS011;5369;49.586;8.646;2024-02-14T02:11:03;7.93;;;4.43;;
10641;SDS011;5369;49.586;8.646;2024-02-14T02:13:50;7.60;;;4.30;;
10641;SDS011;5369;49.586;8.646;2024-02-14T02:16:36;7.03;;;4.13;;
10641;SDS011;5369;49.586;8.646;2024-02-14T02:19:29;12.20;;;5.00;;
10641;SDS011;5369;49.586;8.646;2024-02-14T02:22:16;7.77;;;4.70;;
10641;SDS011;5369;49.586;8.646;2024-02-14T02:25:02;8.07;;;4.90;;
10641;SDS011;5369;49.586;8.646;2024-02-14T02:27:34;8.53;;;5.17;;
10641;SDS011;5369;49.586;8.646;2024-02-14T02:30:22;7.93;;;5.03;;
10641;SDS011;5369;49.586;8.646;2024-02-14T02:32:49;7.53;;;4.33;;
10641;SDS011;5369;49.586;8.646;2024-02-14T02:35:16;8.03;;;4.57;;
10641;SDS011;5369;49.586;8.646;2024-02-14T02:38:05;7.23;;;4.30;;
10641;SDS011;5369;49.586;8.646;2024-02-14T02:40:51;6.93;;;4.43;;
10641;SDS011;5369;49.586;8.646;2024-02-14T02:43:37;9.20;;;4.37;;
10641;SDS011;5369;49.586;8.646;2024-02-14T02:46:23;6.30;;;4.13;;
10641;SDS011;5369;49.586;8.646;2024-02-14T02:49:10;9.43;;;5.17;;
10641;SDS011;5369;49.586;8.646;2024-02-14T02:51:39;7.17;;;3.67;;
10641;SDS011;5369;49.586;8.646;2024-02-14T02:54:25;5.37;;;3.97;;
10641;SDS011;5369;49.586;8.646;2024-02-14T02:57:11;6.87;;;3.60;;
10641;SDS011;5369;49.586;8.646;2024-02-14T02:59:37;6.40;;;3.53;;
10641;SDS011;5369;49.586;8.646;2024-02-14T03:02:08;8.70;;;4.50;;
10641;SDS011;5369;49.586;8.646;2024-02-14T03:04:57;5.83;;;3.50;;
10641;SDS011;5369;49.586;8.646;2024-02-14T03:07:42;6.67;;;3.47;;
10641;SDS011;5369;49.586;8.646;2024-02-14T03:10:30;7.97;;;3.60;;
10641;SDS011;5369;49.586;8.646;2024-02-14T03:13:16;6.73;;;3.70;;
10641;SDS011;5369;49.586;8.646;2024-02-14T03:16:02;4.83;;;3.40;;
10641;SDS011;5369;49.586;8.646;2024-02-14T03:18:29;10.30;;;4.70;;
10641;SDS011;5369;49.586;8.646;2024-02-14T03:20:55;6.33;;;4.20;;
10641;SDS011;5369;49.586;8.646;2024-02-14T03:23:21;7.37;;;3.93;;
10641;SDS011;5369;49.586;8.646;2024-02-14T03:25:48;7.67;;;4.00;;
10641;SDS011;5369;49.586;8.646;2024-02-14T03:28:14;4.90;;;3.93;;
10641;SDS011;5369;49.586;8.646;2024-02-14T03:30:41;9.67;;;4.37;;
10641;SDS011;5369;49.586;8.646;2024-02-14T03:33:07;5.87;;;3.77;;
10641;SDS011;5369;49.586;8.646;2024-02-14T03:35:33;7.27;;;4.03;;
10641;SDS011;5369;49.586;8.646;2024-02-14T03:38:01;8.80;;;4.27;;
10641;SDS011;5369;49.586;8.646;2024-02-14T03:40:27;7.13;;;3.93;;
10641;SDS011;5369;49.586;8.646;2024-02-14T03:42:55;6.10;;;4.43;;
10641;SDS011;5369;49.586;8.646;2024-02-14T03:45:22;7.80;;;3.83;;
10641;SDS011;5369;49.586;8.646;2024-02-14T03:47:48;5.60;;;4.03;;
10641;SDS011;5369;49.586;8.646;2024-02-14T03:50:14;10.30;;;5.03;;
10641;SDS011;5369;49.586;8.646;2024-02-14T03:52:41;7.13;;;4.03;;
10641;SDS011;5369;49.586;8.646;2024-02-14T03:55:11;8.00;;;3.63;;
10641;SDS011;5369;49.586;8.646;2024-02-14T03:57:39;6.03;;;3.80;;
10641;SDS011;5369;49.586;8.646;2024-02-14T04:00:05;8.97;;;4.60;;
10641;SDS011;5369;49.586;8.646;2024-02-14T04:02:38;8.00;;;4.30;;
10641;SDS011;5369;49.586;8.646;2024-02-14T04:05:05;6.63;;;3.87;;
10641;SDS011;5369;49.586;8.646;2024-02-14T04:07:32;7.63;;;3.93;;
10641;SDS011;5369;49.586;8.646;2024-02-14T04:09:59;8.83;;;4.07;;
10641;SDS011;5369;49.586;8.646;2024-02-14T04:12:25;7.60;;;4.07;;
10641;SDS011;5369;49.586;8.646;2024-02-14T04:14:52;8.77;;;4.90;;
10641;SDS011;5369;49.586;8.646;2024-02-14T04:17:18;5.93;;;4.00;;
10641;SDS011;5369;49.586;8.646;2024-02-14T04:19:44;7.23;;;4.50;;
10641;SDS011;5369;49.586;8.646;2024-02-14T04:22:10;7.37;;;4.40;;
10641;SDS011;5369;49.586;8.646;2024-02-14T04:24:36;8.00;;;4.83;;
10641;SDS011;5369;49.586;8.646;2024-02-14T04:27:02;7.87;;;4.20;;
10641;SDS011;5369;49.586;8.646;2024-02-14T04:29:29;7.10;;;4.20;;
10641;SDS011;5369;49.586;8.646;2024-02-14T04:31:58;7.47;;;3.87;;
10641;SDS011;5369;49.586;8.646;2024-02-14T04:34:25;7.40;;;4.37;;
10641;SDS011;5369;49.586;8.646;2024-02-14T04:36:52;5.97;;;3.67;;
10641;SDS011;5369;49.586;8.646;2024-02-14T04:39:18;6.67;;;3.97;;
10641;SDS011;5369;49.586;8.646;2024-02-14T04:41:44;6.93;;;3.87;;
10641;SDS011;5369;49.586;8.646;2024-02-14T04:44:10;7.07;;;4.10;;
10641;SDS011;5369;49.586;8.646;2024-02-14T04:46:37;5.60;;;3.80;;
10641;SDS011;5369;49.586;8.646;2024-02-14T04:49:08;8.37;;;3.90;;
10641;SDS011;5369;49.586;8.646;2024-02-14T04:51:35;6.43;;;4.03;;
10641;SDS011;5369;49.586;8.646;2024-02-14T04:54:01;10.77;;;4.20;;
10641;SDS011;5369;49.586;8.646;2024-02-14T04:56:27;4.63;;;3.20;;
10641;SDS011;5369;49.586;8.646;2024-02-14T04:58:53;6.07;;;3.50;;
10641;SDS011;5369;49.586;8.646;2024-02-14T05:01:20;7.33;;;3.60;;
10641;SDS011;5369;49.586;8.646;2024-02-14T05:03:46;5.87;;;4.13;;
10641;SDS011;5369;49.586;8.646;2024-02-14T05:06:13;6.50;;;4.10;;
10641;SDS011;5369;49.586;8.646;2024-02-14T05:08:40;7.87;;;3.70;;
10641;SDS011;5369;49.586;8.646;2024-02-14T05:11:06;5.87;;;3.50;;
10641;SDS011;5369;49.586;8.646;2024-02-14T05:13:32;7.17;;;3.70;;
10641;SDS011;5369;49.586;8.646;2024-02-14T05:16:01;7.73;;;3.80;;
10641;SDS011;5369;49.586;8.646;2024-02-14T05:18:27;6.47;;;4.10;;
10641;SDS011;5369;49.586;8.646;2024-02-14T05:20:54;5.67;;;3.53;;
10641;SDS011;5369;49.586;8.646;2024-02-14T05:23:20;7.70;;;3.53;;
10641;SDS011;5369;49.586;8.646;2024-02-14T05:25:46;7.63;;;4.17;;
10641;SDS011;5369;49.586;8.646;2024-02-14T05:28:13;7.90;;;3.63;;
10641;SDS011;5369;49.586;8.646;2024-02-14T05:30:42;6.63;;;3.97;;
10641;SDS011;5369;49.586;8.646;2024-02-14T05:33:17;5.47;;;3.63;;
10641;SDS011;5369;49.586;8.646;2024-02-14T05:35:47;7.50;;;3.57;;
10641;SDS011;5369;49.586;8.646;2024-02-14T05:38:13;7.33;;;4.00;;
10641;SDS011;5369;49.586;8.646;2024-02-14T05:40:39;5.47;;;3.67;;
10641;SDS011;5369;49.586;8.646;2024-02-14T05:43:08;6.30;;;3.37;;
10641;SDS011;5369;49.586;8.646;2024-02-14T05:45:34;6.93;;;3.70;;
10641;SDS011;5369;49.586;8.646;2024-02-14T05:48:00;8.07;;;3.20;;
10641;SDS011;5369;49.586;8.646;2024-02-14T05:50:27;4.20;;;3.07;;
10641;SDS011;5369;49.586;8.646;2024-02-14T05:52:53;5.17;;;3.37;;
10641;SDS011;5369;49.586;8.646;2024-02-14T05:55:19;3.90;;;2.90;;
10641;SDS011;5369;49.586;8.646;2024-02-14T05:57:50;6.00;;;3.20;;
10641;SDS011;5369;49.586;8.646;2024-02-14T06:00:19;6.53;;;3.03;;
10641;SDS011;5369;49.586;8.646;2024-02-14T06:02:46;5.93;;;3.10;;
10641;SDS011;5369;49.586;8.646;2024-02-14T06:05:12;5.03;;;3.50;;
10641;SDS011;5369;49.586;8.646;2024-02-14T06:07:39;4.57;;;2.93;;
10641;SDS011;5369;49.586;8.646;2024-02-14T06:10:06;6.37;;;3.33;;
10641;SDS011;5369;49.586;8.646;2024-02-14T06:12:33;4.73;;;3.10;;
10641;SDS011;5369;49.586;8.646;2024-02-14T06:15:00;5.70;;;2.80;;
10641;SDS011;5369;49.586;8.646;2024-02-14T06:17:26;6.93;;;3.70;;
10641;SDS011;5369;49.586;8.646;2024-02-14T06:19:52;5.27;;;3.30;;
10641;SDS011;5369;49.586;8.646;2024-02-14T06:22:19;6.00;;;3.40;;
10641;SDS011;5369;49.586;8.646;2024-02-14T06:24:45;7.10;;;3.27;;
10641;SDS011;5369;49.586;8.646;2024-02-14T06:27:13;5.50;;;3.20;;
10641;SDS011;5369;49.586;8.646;2024-02-14T06:29:43;5.07;;;3.30;;
10641;SDS011;5369;49.586;8.646;2024-02-14T06:32:11;5.93;;;3.63;;
10641;SDS011;5369;49.586;8.646;2024-02-14T06:34:37;5.90;;;3.10;;
10641;SDS011;5369;49.586;8.646;2024-02-14T06:37:03;6.55;;;3.42;;
10641;SDS011;5369;49.586;8.646;2024-02-14T06:39:30;4.17;;;3.10;;
10641;SDS011;5369;49.586;8.646;2024-02-14T06:41:56;6.30;;;3.30;;
10641;SDS011;5369;49.586;8.646;2024-02-14T06:44:25;7.53;;;3.40;;
10641;SDS011;5369;49.586;8.646;2024-02-14T06:46:51;6.03;;;3.53;;
10641;SDS011;5369;49.586;8.646;2024-02-14T06:49:17;9.37;;;3.70;;
10641;SDS011;5369;49.586;8.646;2024-02-14T06:51:44;5.93;;;3.30;;
10641;SDS011;5369;49.586;8.646;2024-02-14T06:54:10;8.33;;;3.80;;
10641;SDS011;5369;49.586;8.646;2024-02-14T06:56:40;5.17;;;3.30;;
10641;SDS011;5369;49.586;8.646;2024-02-14T06:59:06;8.53;;;5.63;;
10641;SDS011;5369;49.586;8.646;2024-02-14T07:01:32;6.97;;;3.77;;
10641;SDS011;5369;49.586;8.646;2024-02-14T07:03:59;5.43;;;3.80;;
10641;SDS011;5369;49.586;8.646;2024-02-14T07:06:26;5.87;;;3.40;;
10641;SDS011;5369;49.586;8.646;2024-02-14T07:08:53;7.87;;;4.20;;
10641;SDS011;5369;49.586;8.646;2024-02-14T07:11:19;8.33;;;4.40;;
10641;SDS011;5369;49.586;8.646;2024-02-14T07:13:45;6.33;;;3.70;;
10641;SDS011;5369;49.586;8.646;2024-02-14T07:16:11;4.63;;;3.20;;
10641;SDS011;5369;49.586;8.646;2024-02-14T07:18:38;7.13;;;3.83;;
10641;SDS011;5369;49.586;8.646;2024-02-14T07:21:04;6.03;;;3.60;;
10641;SDS011;5369;49.586;8.646;2024-02-14T07:23:31;6.50;;;3.40;;
10641;SDS011;5369;49.586;8.646;2024-02-14T07:26:00;8.40;;;4.43;;
10641;SDS011;5369;49.586;8.646;2024-02-14T07:28:26;7.33;;;3.20;;
10641;SDS011;5369;49.586;8.646;2024-02-14T07:30:53;8.00;;;4.57;;
10641;SDS011;5369;49.586;8.646;2024-02-14T07:33:19;5.20;;;3.47;;
10641;SDS011;5369;49.586;8.646;2024-02-14T07:35:45;5.90;;;3.40;;
10641;SDS011;5369;49.586;8.646;2024-02-14T07:38:12;6.13;;;2.97;;
10641;SDS011;5369;49.586;8.646;2024-02-14T07:40:39;4.90;;;3.13;;
10641;SDS011;5369;49.586;8.646;2024-02-14T07:43:14;5.83;;;3.40;;
10641;SDS011;5369;49.586;8.646;2024-02-14T07:45:41;5.43;;;3.43;;
10641;SDS011;5369;49.586;8.646;2024-02-14T07:48:07;7.50;;;4.53;;
10641;SDS011;5369;49.586;8.646;2024-02-14T07:50:33;11.47;;;7.60;;
10641;SDS011;5369;49.586;8.646;2024-02-14T07:53:01;10.63;;;6.37;;
10641;SDS011;5369;49.586;8.646;2024-02-14T07:55:27;5.40;;;4.00;;
10641;SDS011;5369;49.586;8.646;2024-02-14T07:57:53;8.67;;;4.87;;
10641;SDS011;5369;49.586;8.646;2024-02-14T08:00:20;8.50;;;4.77;;
10641;SDS011;5369;49.586;8.646;2024-02-14T08:02:49;5.47;;;3.33;;
10641;SDS011;5369;49.586;8.646;2024-02-14T08:05:16;6.97;;;3.73;;
10641;SDS011;5369;49.586;8.646;2024-02-14T08:07:42;6.73;;;3.70;;
10641;SDS011;5369;49.586;8.646;2024-02-14T08:10:09;5.43;;;2.80;;
10641;SDS011;5369;49.586;8.646;2024-02-14T08:12:35;5.40;;;2.80;;
10641;SDS011;5369;49.586;8.646;2024-02-14T08:15:02;5.63;;;3.27;;
10641;SDS011;5369;49.586;8.646;2024-02-14T08:17:30;6.17;;;3.20;;
10641;SDS011;5369;49.586;8.646;2024-02-14T08:19:56;5.90;;;3.57;;
10641;SDS011;5369;49.586;8.646;2024-02-14T08:22:22;4.70;;;3.10;;
10641;SDS011;5369;49.586;8.646;2024-02-14T08:24:48;5.87;;;3.50;;
10641;SDS011;5369;49.586;8.646;2024-02-14T08:27:14;5.40;;;3.20;;
10641;SDS011;5369;49.586;8.646;2024-02-14T08:29:41;9.53;;;4.60;;
10641;SDS011;5369;49.586;8.646;2024-02-14T08:32:07;6.73;;;3.63;;
10641;SDS011;5369;49.586;8.646;2024-02-14T08:34:33;6.43;;;3.47;;
10641;SDS011;5369;49.586;8.646;2024-02-14T08:37:00;7.97;;;3.70;;
10641;SDS011;5369;49.586;8.646;2024-02-14T08:39:26;4.97;;;3.17;;
10641;SDS011;5369;49.586;8.646;2024-02-14T08:41:53;7.13;;;3.80;;
10641;SDS011;5369;49.586;8.646;2024-02-14T08:44:19;7.17;;;3.77;;
10641;SDS011;5369;49.586;8.646;2024-02-14T08:46:45;7.07;;;3.97;;
10641;SDS011;5369;49.586;8.646;2024-02-14T08:49:14;8.10;;;4.10;;
10641;SDS011;5369;49.586;8.646;2024-02-14T08:51:40;5.87;;;3.23;;
10641;SDS011;5369;49.586;8.646;2024-02-14T08:54:09;6.00;;;3.50;;
10641;SDS011;5369;49.586;8.646;2024-02-14T08:56:36;5.13;;;2.90;;
10641;SDS011;5369;49.586;8.646;2024-02-14T08:59:02;4.93;;;3.13;;
10641;SDS011;5369;49.586;8.646;2024-02-14T09:01:30;5.03;;;3.20;;
10641;SDS011;5369;49.586;8.646;2024-02-14T09:03:57;6.57;;;3.50;;
10641;SDS011;5369;49.586;8.646;2024-02-14T09:06:24;7.57;;;3.20;;
10641;SDS011;5369;49.586;8.646;2024-02-14T09:08:53;7.80;;;4.20;;
10641;SDS011;5369;49.586;8.646;2024-02-14T09:11:20;6.63;;;3.50;;
10641;SDS011;5369;49.586;8.646;2024-02-14T09:13:48;5.87;;;3.20;;
10641;SDS011;5369;49.586;8.646;2024-02-14T09:16:19;6.87;;;3.17;;
10641;SDS011;5369;49.586;8.646;2024-02-14T09:18:47;6.57;;;3.17;;
10641;SDS011;5369;49.586;8.646;2024-02-14T09:21:13;5.13;;;3.17;;
10641;SDS011;5369;49.586;8.646;2024-02-14T09:23:40;6.00;;;3.23;;
10641;SDS011;5369;49.586;8.646;2024-02-14T09:26:07;6.30;;;3.33;;
10641;SDS011;5369;49.586;8.646;2024-02-14T09:28:33;6.17;;;2.90;;
10641;SDS011;5369;49.586;8.646;2024-02-14T09:31:00;5.67;;;3.60;;
10641;SDS011;5369;49.586;8.646;2024-02-14T09:33:28;6.60;;;3.07;;
10641;SDS011;5369;49.586;8.646;2024-02-14T09:35:55;5.07;;;3.00;;
10641;SDS011;5369;49.586;8.646;2024-02-14T09:38:22;4.83;;;3.40;;
10641;SDS011;5369;49.586;8.646;2024-02-14T09:40:50;6.13;;;3.37;;
10641;SDS011;5369;49.586;8.646;2024-02-14T09:43:38;8.30;;;3.77;;
10641;SDS011;5369;49.586;8.646;2024-02-14T09:46:03;6.17;;;3.40;;
10641;SDS011;5369;49.586;8.646;2024-02-14T09:48:29;6.17;;;3.37;;
10641;SDS011;5369;49.586;8.646;2024-02-14T09:50:56;6.23;;;3.30;;
10641;SDS011;5369;49.586;8.646;2024-02-14T09:53:23;5.57;;;3.40;;
10641;SDS011;5369;49.586;8.646;2024-02-14T09:55:49;6.10;;;3.40;;
10641;SDS011;5369;49.586;8.646;2024-02-14T09:58:17;5.40;;;3.20;;
10641;SDS011;5369;49.586;8.646;2024-02-14T10:00:43;6.10;;;3.20;;
10641;SDS011;5369;49.586;8.646;2024-02-14T10:03:09;6.30;;;3.23;;
10641;SDS011;5369;49.586;8.646;2024-02-14T10:05:35;5.00;;;3.43;;
10641;SDS011;5369;49.586;8.646;2024-02-14T10:08:02;7.43;;;3.00;;
10641;SDS011;5369;49.586;8.646;2024-02-14T10:10:31;5.50;;;3.00;;
10641;SDS011;5369;49.586;8.646;2024-02-14T10:12:57;7.13;;;3.30;;
10641;SDS011;5369;49.586;8.646;2024-02-14T10:15:23;4.70;;;2.97;;
10641;SDS011;5369;49.586;8.646;2024-02-14T10:17:50;5.97;;;3.20;;
10641;SDS011;5369;49.586;8.646;2024-02-14T10:20:17;5.27;;;3.20;;
10641;SDS011;5369;49.586;8.646;2024-02-14T10:22:43;5.37;;;3.43;;
10641;SDS011;5369;49.586;8.646;2024-02-14T10:25:10;5.17;;;3.30;;
10641;SDS011;5369;49.586;8.646;2024-02-14T10:27:37;7.37;;;3.00;;
10641;SDS011;5369;49.586;8.646;2024-02-14T10:30:07;7.43;;;3.60;;
10641;SDS011;5369;49.586;8.646;2024-02-14T10:32:35;8.57;;;3.40;;
10641;SDS011;5369;49.586;8.646;2024-02-14T10:35:05;5.97;;;3.10;;
10641;SDS011;5369;49.586;8.646;2024-02-14T10:37:36;7.07;;;3.10;;
10641;SDS011;5369;49.586;8.646;2024-02-14T10:40:03;5.93;;;3.27;;
10641;SDS011;5369;49.586;8.646;2024-02-14T10:42:31;5.17;;;3.07;;
10641;SDS011;5369;49.586;8.646;2024-02-14T10:44:58;5.83;;;3.20;;
10641;SDS011;5369;49.586;8.646;2024-02-14T10:47:24;7.07;;;3.23;;
10641;SDS011;5369;49.586;8.646;2024-02-14T10:49:51;5.10;;;3.30;;
10641;SDS011;5369;49.586;8.646;2024-02-14T10:52:18;5.47;;;3.23;;
10641;SDS011;5369;49.586;8.646;2024-02-14T10:54:48;8.87;;;3.30;;
10641;SDS011;5369;49.586;8.646;2024-02-14T10:57:18;7.07;;;3.20;;
10641;SDS011;5369;49.586;8.646;2024-02-14T10:59:45;3.50;;;3.10;;
10641;SDS011;5369;49.586;8.646;2024-02-14T11:02:12;4.60;;;3.30;;
10641;SDS011;5369;49.586;8.646;2024-02-14T11:04:38;5.50;;;3.03;;
10641;SDS011;5369;49.586;8.646;2024-02-14T11:07:08;5.30;;;2.90;;
10641;SDS011;5369;49.586;8.646;2024-02-14T11:09:38;5.27;;;3.20;;
10641;SDS011;5369;49.586;8.646;2024-02-14T11:12:07;5.17;;;3.23;;
10641;SDS011;5369;49.586;8.646;2024-02-14T11:14:34;5.63;;;3.00;;
10641;SDS011;5369;49.586;8.646;2024-02-14T11:17:02;6.57;;;3.30;;
10641;SDS011;5369;49.586;8.646;2024-02-14T11:19:31;8.17;;;3.63;;
10641;SDS011;5369;49.586;8.646;2024-02-14T11:21:58;4.50;;;2.90;;
10641;SDS011;5369;49.586;8.646;2024-02-14T11:24:27;5.13;;;2.90;;
10641;SDS011;5369;49.586;8.646;2024-02-14T11:26:55;6.60;;;3.20;;
10641;SDS011;5369;49.586;8.646;2024-02-14T11:29:28;5.77;;;3.37;;
10641;SDS011;5369;49.586;8.646;2024-02-14T11:31:58;4.93;;;3.17;;
10641;SDS011;5369;49.586;8.646;2024-02-14T11:34:25;6.73;;;3.30;;
10641;SDS011;5369;49.586;8.646;2024-02-14T11:36:52;5.07;;;3.17;;
10641;SDS011;5369;49.586;8.646;2024-02-14T11:39:18;7.37;;;3.50;;
10641;SDS011;5369;49.586;8.646;2024-02-14T11:41:45;5.30;;;3.07;;
10641;SDS011;5369;49.586;8.646;2024-02-14T11:44:12;4.90;;;3.00;;
10641;SDS011;5369;49.586;8.646;2024-02-14T11:46:38;6.23;;;3.63;;
10641;SDS011;5369;49.586;8.646;2024-02-14T11:49:05;5.43;;;3.00;;
10641;SDS011;5369;49.586;8.646;2024-02-14T11:51:32;5.37;;;3.20;;
10641;SDS011;5369;49.586;8.646;2024-02-14T11:53:59;5.63;;;2.87;;
10641;SDS011;5369;49.586;8.646;2024-02-14T11:56:37;8.47;;;3.10;;
10641;SDS011;5369;49.586;8.646;2024-02-14T11:59:04;6.33;;;3.13;;
10641;SDS011;5369;49.586;8.646;2024-02-14T12:01:31;5.33;;;3.37;;
10641;SDS011;5369;49.586;8.646;2024-02-14T12:03:59;3.77;;;2.90;;
10641;SDS011;5369;49.586;8.646;2024-02-14T12:06:29;6.50;;;3.97;;
10641;SDS011;5369;49.586;8.646;2024-02-14T12:08:57;6.93;;;3.60;;
10641;SDS011;5369;49.586;8.646;2024-02-14T12:11:33;3.97;;;3.13;;
10641;SDS011;5369;49.586;8.646;2024-02-14T12:14:07;4.97;;;2.93;;
10641;SDS011;5369;49.586;8.646;2024-02-14T12:16:34;5.47;;;3.23;;
10641;SDS011;5369;49.586;8.646;2024-02-14T12:19:05;4.90;;;3.07;;
10641;SDS011;5369;49.586;8.646;2024-02-14T12:21:36;4.90;;;3.07;;
10641;SDS011;5369;49.586;8.646;2024-02-14T12:24:04;8.20;;;3.27;;
10641;SDS011;5369;49.586;8.646;2024-02-14T12:26:30;5.27;;;3.17;;
10641;SDS011;5369;49.586;8.646;2024-02-14T12:28:57;4.37;;;3.00;;
10641;SDS011;5369;49.586;8.646;2024-02-14T12:31:24;4.00;;;2.60;;
10641;SDS011;5369;49.586;8.646;2024-02-14T12:33:50;5.20;;;2.90;;
10641;SDS011;5369;49.586;8.646;2024-02-14T12:36:19;4.47;;;2.70;;
10641;SDS011;5369;49.586;8.646;2024-02-14T12:38:45;4.40;;;2.33;;
10641;SDS011;5369;49.586;8.646;2024-02-14T12:41:12;6.00;;;2.43;;
10641;SDS011;5369;49.586;8.646;2024-02-14T12:43:38;3.80;;;2.40;;
10641;SDS011;5369;49.586;8.646;2024-02-14T12:46:04;2.67;;;2.10;;
10641;SDS011;5369;49.586;8.646;2024-02-14T12:48:30;4.10;;;2.50;;
10641;SDS011;5369;49.586;8.646;2024-02-14T12:50:56;3.40;;;2.30;;
10641;SDS011;5369;49.586;8.646;2024-02-14T12:53:23;3.57;;;2.30;;
10641;SDS011;5369;49.586;8.646;2024-02-14T12:55:49;3.43;;;2.37;;
10641;SDS011;5369;49.586;8.646;2024-02-14T12:58:16;4.07;;;2.20;;
10641;SDS011;5369;49.586;8.646;2024-02-14T13:00:42;2.93;;;2.10;;
10641;SDS011;5369;49.586;8.646;2024-02-14T13:03:10;2.33;;;2.13;;
10641;SDS011;5369;49.586;8.646;2024-02-14T13:05:36;2.80;;;1.97;;
10641;SDS011;5369;49.586;8.646;2024-02-14T13:08:03;3.70;;;2.20;;
10641;SDS011;5369;49.586;8.646;2024-02-14T13:10:29;3.47;;;2.00;;
10641;SDS011;5369;49.586;8.646;2024-02-14T13:12:56;3.80;;;2.13;;
10641;SDS011;5369;49.586;8.646;2024-02-14T13:15:22;3.27;;;2.30;;
10641;SDS011;5369;49.586;8.646;2024-02-14T13:17:50;4.13;;;2.47;;
10641;SDS011;5369;49.586;8.646;2024-02-14T13:20:16;2.87;;;2.10;;
10641;SDS011;5369;49.586;8.646;2024-02-14T13:22:42;3.33;;;2.20;;
10641;SDS011;5369;49.586;8.646;2024-02-14T13:25:08;3.73;;;2.40;;
10641;SDS011;5369;49.586;8.646;2024-02-14T13:27:35;4.00;;;2.63;;
10641;SDS011;5369;49.586;8.646;2024-02-14T13:30:01;4.63;;;2.30;;
10641;SDS011;5369;49.586;8.646;2024-02-14T13:32:29;3.37;;;2.40;;
10641;SDS011;5369;49.586;8.646;2024-02-14T13:34:55;3.07;;;2.40;;
10641;SDS011;5369;49.586;8.646;2024-02-14T13:37:21;2.37;;;2.00;;
10641;SDS011;5369;49.586;8.646;2024-02-14T13:39:48;3.93;;;2.00;;
10641;SDS011;5369;49.586;8.646;2024-02-14T13:42:14;2.53;;;2.00;;
10641;SDS011;5369;49.586;8.646;2024-02-14T13:44:40;2.93;;;2.23;;
10641;SDS011;5369;49.586;8.646;2024-02-14T13:47:07;3.43;;;2.20;;
10641;SDS011;5369;49.586;8.646;2024-02-14T13:49:33;3.00;;;2.30;;
10641;SDS011;5369;49.586;8.646;2024-02-14T13:51:59;2.20;;;1.80;;
10641;SDS011;5369;49.586;8.646;2024-02-14T13:54:25;4.80;;;2.40;;
10641;SDS011;5369;49.586;8.646;2024-02-14T13:56:51;4.60;;;2.23;;
10641;SDS011;5369;49.586;8.646;2024-02-14T13:59:18;2.67;;;2.00;;
10641;SDS011;5369;49.586;8.646;2024-02-14T14:01:44;3.33;;;2.10;;
10641;SDS011;5369;49.586;8.646;2024-02-14T14:04:11;3.40;;;2.70;;
10641;SDS011;5369;49.586;8.646;2024-02-14T14:06:39;3.63;;;2.90;;
10641;SDS011;5369;49.586;8.646;2024-02-14T14:09:05;3.70;;;2.67;;
10641;SDS011;5369;49.586;8.646;2024-02-14T14:11:33;3.53;;;2.60;;
10641;SDS011;5369;49.586;8.646;2024-02-14T14:13:59;4.43;;;2.67;;
10641;SDS011;5369;49.586;8.646;2024-02-14T14:16:26;3.70;;;2.30;;
10641;SDS011;5369;49.586;8.646;2024-02-14T14:18:52;3.13;;;2.20;;
10641;SDS011;5369;49.586;8.646;2024-02-14T14:21:18;3.20;;;2.40;;
10641;SDS011;5369;49.586;8.646;2024-02-14T14:23:44;3.07;;;2.20;;
10641;SDS011;5369;49.586;8.646;2024-02-14T14:26:12;3.07;;;2.03;;
10641;SDS011;5369;49.586;8.646;2024-02-14T14:28:38;4.37;;;2.00;;
10641;SDS011;5369;49.586;8.646;2024-02-14T14:31:05;4.63;;;1.70;;
10641;SDS011;5369;49.586;8.646;2024-02-14T14:33:32;2.73;;;2.10;;
10641;SDS011;5369;49.586;8.646;2024-02-14T14:35:58;4.03;;;2.03;;
10641;SDS011;5369;49.586;8.646;2024-02-14T14:38:24;3.80;;;1.80;;
10641;SDS011;5369;49.586;8.646;2024-02-14T14:40:51;2.43;;;1.80;;
10641;SDS011;5369;49.586;8.646;2024-02-14T14:43:20;2.30;;;1.60;;
10641;SDS011;5369;49.586;8.646;2024-02-14T14:45:47;3.37;;;1.90;;
10641;SDS011;5369;49.586;8.646;2024-02-14T14:48:14;2.67;;;1.70;;
10641;SDS011;5369;49.586;8.646;2024-02-14T14:50:41;2.83;;;2.07;;
10641;SDS011;5369;49.586;8.646;2024-02-14T14:53:07;2.40;;;1.73;;
10641;SDS011;5369;49.586;8.646;2024-02-14T14:58:20;3.20;;;2.10;;
10641;SDS011;5369;49.586;8.646;2024-02-14T15:00:48;3.03;;;2.10;;
10641;SDS011;5369;49.586;8.646;2024-02-14T15:03:14;3.07;;;2.10;;
10641;SDS011;5369;49.586;8.646;2024-02-14T15:05:40;2.10;;;1.73;;
10641;SDS011;5369;49.586;8.646;2024-02-14T15:08:07;2.70;;;1.83;;